Thurles, Ireland
Current Conditions -  °F | °C
As of 9:00 PM on Thursday 29 Jan 2015 (Local Time) from EIWF Reporting Station
Scattered Clouds Scattered Clouds  
Wind Chill: 29°   Ceiling: Unl
Heat Index: 39°   Visibility: 6mi
Dew Point: 30°   Wind: 22mph
Humidity: 70%   Direction: 310°NW
Pressure: 29.09"   Gusts: 36mph
Location:  52.68°N, 7.48°W
Report Text: EIWF 292000Z 31019G31KT 290V350 9999 SCT020 04/M01 Q0985
Loading
Personal Weather Stations






























Interactive Weather Map New forecast layout! Learn more

10-Day Weather Forecast

Advertisements
Track Severe Weather on mobile